Portada
METAR-TAF:

METAR-TAF

Aeroports :

Inverness, Escòcia

latitud: 57-32N, longitud: 004-03W, altitud: 9 m

Observació

L'informe es va fer fa 18 minuts, a les 20:20 UTC
Vent 3 kt del Sud/Sud-Oest
Temperatura 4°C
Humitat 93%
Pressió 1017 hPa
Visibilitat 10 km o més
Escasses núvols a una alçada de 800 ft
Núvols disperses a una alçada de 2200 ft

METAR: EGPE 152020Z 20003KT 9999 FEW008 SCT022 04/03 Q1017

Hora: 20:38 (20:38 UTC)

Pronòstic

L'informe es va fer fa 3 hores i 37 minuts, a les 17:01 UTC
Pronòstic vàlid del 15 a les 18 UTC al 16 a les 03 UTC
Vent 9 kt del Nord/Nord-Est
Visibilitat 10 km o més
Núvols disperses a una alçada de 3000 ft
Probabilitat 30% :
Temporalment
l' 15 a les 18 UTC al 16 a les 03 UTC
Visibilitat: 6000 m
Cel ennuvolat a una alçada de 1400 ft
xàfecs de pluja

TAF: EGPE 151701Z 1518/1603 03009KT 9999 SCT030 PROB30 TEMPO 1518/1603 6000 SHRA BKN014

Observacions i pronòstics meteorològics de més de 4000 aeroports (METAR i TAF).

Les estacions disponibles són els punts grocs i vermells al mapa.

Posi el ratolí al punt desitjat per veure el nom de l'estació.

Feu clic per veure les observacions i els pronòstics meteorològics.

Per canviar el mapa: feu clic els botons verds amb una creu de color negre per apropar; al botó verd amb un guió per allunyar la imatge; o en les fletxes verdes per a mapes adjacents.


METAR-TAF: